sensor_id;sensor_type;location;lat;lon;timestamp;pressure;altitude;pressure_sealevel;temperature;humidity
30714;BME280;17465;47.934;33.430;2023-02-08T00:02:28;57554.96;;;-140.43;75.52
30714;BME280;17465;47.934;33.430;2023-02-08T00:04:59;57562.37;;;-140.43;74.70
30714;BME280;17465;47.934;33.430;2023-02-08T00:07:30;57562.37;;;-140.43;74.70
30714;BME280;17465;47.934;33.430;2023-02-08T00:10:02;57552.84;;;-140.43;75.30
30714;BME280;17465;47.934;33.430;2023-02-08T00:12:34;57552.84;;;-140.43;75.30
30714;BME280;17465;47.934;33.430;2023-02-08T00:15:08;57562.37;;;-140.43;75.75
30714;BME280;17465;47.934;33.430;2023-02-08T00:17:39;57556.02;;;-140.43;74.07
30714;BME280;17465;47.934;33.430;2023-02-08T00:20:10;57564.49;;;-140.43;75.91
30714;BME280;17465;47.934;33.430;2023-02-08T00:23:01;57569.79;;;-140.43;76.13
30714;BME280;17465;47.934;33.430;2023-02-08T00:25:32;57567.67;;;-140.43;75.99
30714;BME280;17465;47.934;33.430;2023-02-08T00:28:02;57578.26;;;-140.43;76.05
30714;BME280;17465;47.934;33.430;2023-02-08T00:30:34;57579.32;;;-140.43;75.56
30714;BME280;17465;47.934;33.430;2023-02-08T00:33:04;57538.01;;;-140.43;75.62
30714;BME280;17465;47.934;33.430;2023-02-08T00:35:41;57604.74;;;-140.43;76.20
30714;BME280;17465;47.934;33.430;2023-02-08T00:38:07;57571.90;;;-140.43;76.66
30714;BME280;17465;47.934;33.430;2023-02-08T00:40:38;57571.90;;;-140.43;76.66
30714;BME280;17465;47.934;33.430;2023-02-08T00:43:09;57564.49;;;-140.43;75.84
30714;BME280;17465;47.934;33.430;2023-02-08T00:45:40;57587.79;;;-140.43;75.52
30714;BME280;17465;47.934;33.430;2023-02-08T00:48:10;57586.73;;;-140.43;75.64
30714;BME280;17465;47.934;33.430;2023-02-08T00:50:41;57565.55;;;-140.43;76.94
30714;BME280;17465;47.934;33.430;2023-02-08T00:53:11;57572.96;;;-140.43;76.87
30714;BME280;17465;47.934;33.430;2023-02-08T00:55:41;57548.61;;;-140.43;77.12
30714;BME280;17465;47.934;33.430;2023-02-08T00:58:11;57557.08;;;-140.43;76.62
30714;BME280;17465;47.934;33.430;2023-02-08T01:00:42;57560.25;;;-140.43;75.97
30714;BME280;17465;47.934;33.430;2023-02-08T01:03:13;57575.08;;;-140.43;76.62
30714;BME280;17465;47.934;33.430;2023-02-08T01:05:44;57545.43;;;-140.43;76.01
30714;BME280;17465;47.934;33.430;2023-02-08T01:08:15;57548.61;;;-140.43;76.03
30714;BME280;17465;47.934;33.430;2023-02-08T01:10:46;57558.13;;;-140.43;76.74
30714;BME280;17465;47.934;33.430;2023-02-08T01:13:17;57567.67;;;-140.43;76.36
30714;BME280;17465;47.934;33.430;2023-02-08T01:15:47;57567.67;;;-140.43;76.36
30714;BME280;17465;47.934;33.430;2023-02-08T01:18:19;57575.08;;;-140.43;76.69
30714;BME280;17465;47.934;33.430;2023-02-08T01:20:49;57578.26;;;-140.43;77.12
30714;BME280;17465;47.934;33.430;2023-02-08T01:23:19;57580.37;;;-140.43;75.26
30714;BME280;17465;47.934;33.430;2023-02-08T01:25:50;57571.90;;;-140.43;76.01
30714;BME280;17465;47.934;33.430;2023-02-08T01:28:20;57571.90;;;-140.43;76.01
30714;BME280;17465;47.934;33.430;2023-02-08T01:30:51;57560.25;;;-140.43;76.26
30714;BME280;17465;47.934;33.430;2023-02-08T01:33:21;57560.25;;;-140.43;76.26
30714;BME280;17465;47.934;33.430;2023-02-08T01:35:54;57608.98;;;-140.43;77.14
30714;BME280;17465;47.934;33.430;2023-02-08T01:38:25;57572.96;;;-140.43;77.20
30714;BME280;17465;47.934;33.430;2023-02-08T01:40:55;57557.08;;;-140.43;78.42
30714;BME280;17465;47.934;33.430;2023-02-08T01:46:18;57583.55;;;-140.43;78.38
30714;BME280;17465;47.934;33.430;2023-02-08T01:48:48;57580.37;;;-140.43;77.16
30714;BME280;17465;47.934;33.430;2023-02-08T01:51:23;57576.14;;;-140.43;77.18
30714;BME280;17465;47.934;33.430;2023-02-08T01:53:55;57580.37;;;-140.43;77.67
30714;BME280;17465;47.934;33.430;2023-02-08T01:56:33;57594.14;;;-140.43;78.05
30714;BME280;17465;47.934;33.430;2023-02-08T01:59:05;57563.43;;;-140.43;77.49
30714;BME280;17465;47.934;33.430;2023-02-08T02:01:36;57620.62;;;-140.43;77.92
30714;BME280;17465;47.934;33.430;2023-02-08T02:04:08;57594.14;;;-140.43;77.10
30714;BME280;17465;47.934;33.430;2023-02-08T02:06:41;57603.68;;;-140.43;78.26
30714;BME280;17465;47.934;33.430;2023-02-08T02:12:08;57566.61;;;-140.43;79.15
30714;BME280;17465;47.934;33.430;2023-02-08T02:14:39;57566.61;;;-140.43;79.15
30714;BME280;17465;47.934;33.430;2023-02-08T02:17:12;57611.09;;;-140.43;78.06
30714;BME280;17465;47.934;33.430;2023-02-08T02:20:02;57598.38;;;-140.43;79.16
30714;BME280;17465;47.934;33.430;2023-02-08T02:26:08;57588.85;;;-140.43;78.22
30714;BME280;17465;47.934;33.430;2023-02-08T02:36:55;57608.98;;;-140.43;79.07
30714;BME280;17465;47.934;33.430;2023-02-08T02:39:34;57562.37;;;-140.43;78.68
30714;BME280;17465;47.934;33.430;2023-02-08T02:42:16;57574.02;;;-140.43;78.36
30714;BME280;17465;47.934;33.430;2023-02-08T02:44:51;57613.21;;;-140.43;78.38
30714;BME280;17465;47.934;33.430;2023-02-08T02:47:36;57597.32;;;-140.43;78.07
30714;BME280;17465;47.934;33.430;2023-02-08T02:50:13;57597.32;;;-140.43;78.07
30714;BME280;17465;47.934;33.430;2023-02-08T02:53:04;57594.14;;;-140.43;79.15
30714;BME280;17465;47.934;33.430;2023-02-08T02:55:35;57594.14;;;-140.43;79.15
30714;BME280;17465;47.934;33.430;2023-02-08T02:58:09;57629.10;;;-140.43;79.07
30714;BME280;17465;47.934;33.430;2023-02-08T03:00:40;57634.39;;;-140.43;79.54
30714;BME280;17465;47.934;33.430;2023-02-08T03:03:19;57600.50;;;-140.43;79.77
30714;BME280;17465;47.934;33.430;2023-02-08T03:05:58;57614.27;;;-140.43;79.95
30714;BME280;17465;47.934;33.430;2023-02-08T03:11:33;57594.14;;;-140.43;79.03
30714;BME280;17465;47.934;33.430;2023-02-08T03:14:33;57604.74;;;-140.43;79.03
30714;BME280;17465;47.934;33.430;2023-02-08T03:22:41;57621.68;;;-140.43;80.30
30714;BME280;17465;47.934;33.430;2023-02-08T03:25:13;57623.80;;;-140.43;80.78
30714;BME280;17465;47.934;33.430;2023-02-08T03:36:42;57613.21;;;-140.43;79.27
30714;BME280;17465;47.934;33.430;2023-02-08T03:39:16;57613.21;;;-140.43;79.27
30714;BME280;17465;47.934;33.430;2023-02-08T03:41:48;57623.80;;;-140.43;78.55
30714;BME280;17465;47.934;33.430;2023-02-08T03:44:28;57604.74;;;-140.43;78.47
30714;BME280;17465;47.934;33.430;2023-02-08T03:47:27;57604.74;;;-140.43;78.47
30714;BME280;17465;47.934;33.430;2023-02-08T03:49:36;57598.38;;;-140.43;79.36
30714;BME280;17465;47.934;33.430;2023-02-08T03:52:09;57610.03;;;-140.43;79.79
30714;BME280;17465;47.934;33.430;2023-02-08T03:54:45;57598.38;;;-140.43;79.03
30714;BME280;17465;47.934;33.430;2023-02-08T03:59:53;57622.74;;;-140.43;79.47
30714;BME280;17465;47.934;33.430;2023-02-08T04:02:21;57622.74;;;-140.43;79.47
30714;BME280;17465;47.934;33.430;2023-02-08T04:04:53;57659.81;;;-140.43;80.84
30714;BME280;17465;47.934;33.430;2023-02-08T04:07:25;57659.81;;;-140.43;80.84
30714;BME280;17465;47.934;33.430;2023-02-08T04:09:57;57608.98;;;-140.43;79.75
30714;BME280;17465;47.934;33.430;2023-02-08T04:12:27;57608.98;;;-140.43;79.75
30714;BME280;17465;47.934;33.430;2023-02-08T04:14:57;57623.80;;;-140.43;78.53
30714;BME280;17465;47.934;33.430;2023-02-08T04:17:28;57617.45;;;-140.43;80.42
30714;BME280;17465;47.934;33.430;2023-02-08T04:19:58;57626.98;;;-140.43;81.66
30714;BME280;17465;47.934;33.430;2023-02-08T04:22:29;57633.34;;;-140.43;80.39
30714;BME280;17465;47.934;33.430;2023-02-08T04:24:59;57651.34;;;-140.43;79.82
30714;BME280;17465;47.934;33.430;2023-02-08T04:27:30;57624.86;;;-140.43;79.12
30714;BME280;17465;47.934;33.430;2023-02-08T04:30:02;57639.69;;;-140.43;78.17
30714;BME280;17465;47.934;33.430;2023-02-08T04:32:34;57630.16;;;-140.43;79.94
30714;BME280;17465;47.934;33.430;2023-02-08T04:35:05;57613.21;;;-140.43;79.28
30714;BME280;17465;47.934;33.430;2023-02-08T04:37:36;57623.80;;;-140.43;79.75
30714;BME280;17465;47.934;33.430;2023-02-08T04:40:07;57628.04;;;-140.43;79.09
30714;BME280;17465;47.934;33.430;2023-02-08T04:42:37;57603.68;;;-140.43;79.66
30714;BME280;17465;47.934;33.430;2023-02-08T04:45:09;57618.50;;;-140.43;79.83
30714;BME280;17465;47.934;33.430;2023-02-08T04:47:39;57625.92;;;-140.43;79.64
30714;BME280;17465;47.934;33.430;2023-02-08T04:50:10;57636.51;;;-140.43;79.17
30714;BME280;17465;47.934;33.430;2023-02-08T04:52:46;57636.51;;;-140.43;79.17
30714;BME280;17465;47.934;33.430;2023-02-08T04:55:17;57649.22;;;-140.43;78.70
30714;BME280;17465;47.934;33.430;2023-02-08T04:57:48;57625.92;;;-140.43;80.44
30714;BME280;17465;47.934;33.430;2023-02-08T05:00:19;57625.92;;;-140.43;80.44
30714;BME280;17465;47.934;33.430;2023-02-08T05:02:54;57634.39;;;-140.43;79.05
30714;BME280;17465;47.934;33.430;2023-02-08T05:05:26;57634.39;;;-140.43;79.05
30714;BME280;17465;47.934;33.430;2023-02-08T05:07:58;57629.10;;;-140.43;79.00
30714;BME280;17465;47.934;33.430;2023-02-08T05:10:28;57629.10;;;-140.43;79.73
30714;BME280;17465;47.934;33.430;2023-02-08T05:12:59;57655.58;;;-140.43;79.09
30714;BME280;17465;47.934;33.430;2023-02-08T05:15:30;57638.63;;;-140.43;79.76
30714;BME280;17465;47.934;33.430;2023-02-08T05:18:01;57615.33;;;-140.43;80.85
30714;BME280;17465;47.934;33.430;2023-02-08T05:20:32;57608.98;;;-140.43;80.89
30714;BME280;17465;47.934;33.430;2023-02-08T05:23:03;57625.92;;;-140.43;80.00
30714;BME280;17465;47.934;33.430;2023-02-08T05:25:36;57602.62;;;-140.43;78.98
30714;BME280;17465;47.934;33.430;2023-02-08T05:28:07;57602.62;;;-140.43;78.98
30714;BME280;17465;47.934;33.430;2023-02-08T05:30:38;57608.98;;;-140.43;77.52
30714;BME280;17465;47.934;33.430;2023-02-08T05:33:13;57621.68;;;-140.43;76.45
30714;BME280;17465;47.934;33.430;2023-02-08T05:35:44;57635.45;;;-140.43;76.96
30714;BME280;17465;47.934;33.430;2023-02-08T05:38:15;57618.50;;;-140.43;77.62
30714;BME280;17465;47.934;33.430;2023-02-08T05:40:48;57628.04;;;-140.43;77.39
30714;BME280;17465;47.934;33.430;2023-02-08T05:43:18;57631.22;;;-140.43;78.33
30714;BME280;17465;47.934;33.430;2023-02-08T05:45:49;57626.98;;;-140.43;78.19
30714;BME280;17465;47.934;33.430;2023-02-08T05:48:20;57632.27;;;-140.43;79.32
30714;BME280;17465;47.934;33.430;2023-02-08T05:50:50;57644.98;;;-140.43;78.70
30714;BME280;17465;47.934;33.430;2023-02-08T05:53:21;57644.98;;;-140.43;78.70
30714;BME280;17465;47.934;33.430;2023-02-08T05:55:51;57649.22;;;-140.43;79.33
30714;BME280;17465;47.934;33.430;2023-02-08T05:58:24;57624.86;;;-140.43;77.99
30714;BME280;17465;47.934;33.430;2023-02-08T06:00:55;57605.80;;;-140.43;79.03
30714;BME280;17465;47.934;33.430;2023-02-08T06:03:26;57613.21;;;-140.43;78.24
30714;BME280;17465;47.934;33.430;2023-02-08T06:05:59;57622.74;;;-140.43;78.07
30714;BME280;17465;47.934;33.430;2023-02-08T06:08:29;57622.74;;;-140.43;78.07
30714;BME280;17465;47.934;33.430;2023-02-08T06:10:59;57585.67;;;-140.43;76.67
30714;BME280;17465;47.934;33.430;2023-02-08T06:13:30;57625.92;;;-140.43;77.06
30714;BME280;17465;47.934;33.430;2023-02-08T06:16:01;57625.92;;;-140.43;75.26
30714;BME280;17465;47.934;33.430;2023-02-08T06:18:31;57587.79;;;-140.43;75.94
30714;BME280;17465;47.934;33.430;2023-02-08T06:21:02;57648.16;;;-140.43;76.55
30714;BME280;17465;47.934;33.430;2023-02-08T06:23:32;57648.16;;;-140.43;76.55
30714;BME280;17465;47.934;33.430;2023-02-08T06:26:04;57602.62;;;-140.43;78.16
30714;BME280;17465;47.934;33.430;2023-02-08T06:28:35;57604.74;;;-140.43;76.58
30714;BME280;17465;47.934;33.430;2023-02-08T06:31:05;57604.74;;;-140.43;76.58
30714;BME280;17465;47.934;33.430;2023-02-08T06:33:37;57561.31;;;-140.43;76.99
30714;BME280;17465;47.934;33.430;2023-02-08T06:36:07;57561.31;;;-140.43;76.99
30714;BME280;17465;47.934;33.430;2023-02-08T06:38:40;57603.68;;;-140.43;76.95
30714;BME280;17465;47.934;33.430;2023-02-08T06:41:12;57623.80;;;-140.43;76.10
30714;BME280;17465;47.934;33.430;2023-02-08T06:43:42;57612.15;;;-140.43;76.06
30714;BME280;17465;47.934;33.430;2023-02-08T06:46:12;57601.56;;;-140.43;75.35
30714;BME280;17465;47.934;33.430;2023-02-08T06:48:43;57611.09;;;-140.43;75.76
30714;BME280;17465;47.934;33.430;2023-02-08T06:51:14;57595.21;;;-140.43;75.16
30714;BME280;17465;47.934;33.430;2023-02-08T06:53:44;57610.03;;;-140.43;74.20
30714;BME280;17465;47.934;33.430;2023-02-08T06:56:15;57599.44;;;-140.43;74.87
30714;BME280;17465;47.934;33.430;2023-02-08T06:58:48;57596.27;;;-140.43;74.26
30714;BME280;17465;47.934;33.430;2023-02-08T07:01:19;57601.56;;;-140.43;74.51
30714;BME280;17465;47.934;33.430;2023-02-08T07:03:52;57601.56;;;-140.43;74.51
30714;BME280;17465;47.934;33.430;2023-02-08T07:06:24;57584.61;;;-140.43;74.13
30714;BME280;17465;47.934;33.430;2023-02-08T07:08:56;57592.03;;;-140.43;73.98
30714;BME280;17465;47.934;33.430;2023-02-08T07:11:27;57582.50;;;-140.43;74.48
30714;BME280;17465;47.934;33.430;2023-02-08T07:14:00;57607.91;;;-140.43;72.96
30714;BME280;17465;47.934;33.430;2023-02-08T07:19:25;57607.91;;;-140.43;74.06
30714;BME280;17465;47.934;33.430;2023-02-08T07:21:57;57622.74;;;-140.43;74.97
30714;BME280;17465;47.934;33.430;2023-02-08T07:24:28;57589.91;;;-140.43;73.92
30714;BME280;17465;47.934;33.430;2023-02-08T07:26:59;57589.91;;;-140.43;73.92
30714;BME280;17465;47.934;33.430;2023-02-08T07:29:32;57564.49;;;-140.43;74.48
30714;BME280;17465;47.934;33.430;2023-02-08T07:32:04;57595.21;;;-140.43;74.52
30714;BME280;17465;47.934;33.430;2023-02-08T07:34:39;57547.54;;;-140.43;72.96
30714;BME280;17465;47.934;33.430;2023-02-08T07:37:10;57579.32;;;-140.43;72.36
30714;BME280;17465;47.934;33.430;2023-02-08T07:39:43;57574.02;;;-140.43;71.57
30714;BME280;17465;47.934;33.430;2023-02-08T07:42:17;57560.25;;;-140.43;71.22
30714;BME280;17465;47.934;33.430;2023-02-08T07:44:47;57546.48;;;-140.43;67.74
30714;BME280;17465;47.934;33.430;2023-02-08T07:47:18;57517.89;;;-140.43;66.69
30714;BME280;17465;47.934;33.430;2023-02-08T07:49:51;57534.84;;;-140.43;66.43
30714;BME280;17465;47.934;33.430;2023-02-08T07:52:29;57534.84;;;-140.43;66.43
30714;BME280;17465;47.934;33.430;2023-02-08T07:55:01;57529.54;;;-140.43;64.78
30714;BME280;17465;47.934;33.430;2023-02-08T07:57:33;57532.72;;;-140.43;64.52
30714;BME280;17465;47.934;33.430;2023-02-08T08:00:05;57508.36;;;-140.43;64.01
30714;BME280;17465;47.934;33.430;2023-02-08T08:02:37;57507.30;;;-140.43;62.32
30714;BME280;17465;47.934;33.430;2023-02-08T08:05:08;57507.30;;;-140.43;62.32
30714;BME280;17465;47.934;33.430;2023-02-08T08:07:40;57515.77;;;-140.43;61.12
30714;BME280;17465;47.934;33.430;2023-02-08T08:10:12;57503.06;;;-140.43;60.97
30714;BME280;17465;47.934;33.430;2023-02-08T08:12:43;57453.28;;;-140.43;53.97
30714;BME280;17465;47.934;33.430;2023-02-08T08:15:17;57453.28;;;-140.43;53.97
30714;BME280;17465;47.934;33.430;2023-02-08T08:17:48;57418.33;;;-140.43;48.89
30714;BME280;17465;47.934;33.430;2023-02-08T08:20:19;57456.46;;;-140.43;46.95
30714;BME280;17465;47.934;33.430;2023-02-08T08:22:50;57489.29;;;-140.43;48.30
30714;BME280;17465;47.934;33.430;2023-02-08T08:25:20;57455.40;;;-140.43;51.00
30714;BME280;17465;47.934;33.430;2023-02-08T08:27:51;57437.39;;;-140.43;44.90
30714;BME280;17465;47.934;33.430;2023-02-08T08:30:24;57433.16;;;-140.43;45.48
30714;BME280;17465;47.934;33.430;2023-02-08T08:32:54;57433.16;;;-140.43;47.02
30714;BME280;17465;47.934;33.430;2023-02-08T08:35:41;57446.93;;;-140.43;45.84
30714;BME280;17465;47.934;33.430;2023-02-08T08:37:57;57446.93;;;-140.43;45.84
30714;BME280;17465;47.934;33.430;2023-02-08T08:40:28;57423.63;;;-140.43;45.57
30714;BME280;17465;47.934;33.430;2023-02-08T08:42:58;57402.45;;;-140.43;41.10
30714;BME280;17465;47.934;33.430;2023-02-08T08:45:29;57416.21;;;-140.43;41.00
30714;BME280;17465;47.934;33.430;2023-02-08T08:48:00;57454.34;;;-140.43;42.48
30714;BME280;17465;47.934;33.430;2023-02-08T08:50:34;57423.63;;;-140.43;43.63
30714;BME280;17465;47.934;33.430;2023-02-08T08:53:07;57423.63;;;-140.43;37.76
30714;BME280;17465;47.934;33.430;2023-02-08T08:55:41;57423.63;;;-140.43;37.76
30714;BME280;17465;47.934;33.430;2023-02-08T09:01:32;57421.51;;;-140.43;44.45
30714;BME280;17465;47.934;33.430;2023-02-08T09:04:11;57421.51;;;-140.43;44.45
30714;BME280;17465;47.934;33.430;2023-02-08T09:06:43;57447.99;;;-140.43;41.61
30714;BME280;17465;47.934;33.430;2023-02-08T09:09:18;57440.57;;;-140.43;43.89
30714;BME280;17465;47.934;33.430;2023-02-08T09:11:52;57450.11;;;-140.43;44.19
30714;BME280;17465;47.934;33.430;2023-02-08T09:14:26;57474.46;;;-140.43;45.62
30714;BME280;17465;47.934;33.430;2023-02-08T09:17:01;57437.39;;;-140.43;46.51
30714;BME280;17465;47.934;33.430;2023-02-08T09:19:34;57437.39;;;-140.43;46.51
30714;BME280;17465;47.934;33.430;2023-02-08T09:22:15;57432.10;;;-140.43;46.94
30714;BME280;17465;47.934;33.430;2023-02-08T09:24:47;57425.75;;;-140.43;48.17
30714;BME280;17465;47.934;33.430;2023-02-08T09:27:21;57470.23;;;-140.43;46.58
30714;BME280;17465;47.934;33.430;2023-02-08T09:29:53;57452.23;;;-140.43;45.93
30714;BME280;17465;47.934;33.430;2023-02-08T09:32:25;57428.92;;;-140.43;42.92
30714;BME280;17465;47.934;33.430;2023-02-08T09:34:56;57440.57;;;-140.43;42.45
30714;BME280;17465;47.934;33.430;2023-02-08T09:37:30;57423.63;;;-140.43;44.24
30714;BME280;17465;47.934;33.430;2023-02-08T09:40:01;57420.45;;;-140.43;43.10
30714;BME280;17465;47.934;33.430;2023-02-08T09:42:43;57465.99;;;-140.43;46.82
30714;BME280;17465;47.934;33.430;2023-02-08T09:45:50;57463.87;;;-140.43;47.46
30714;BME280;17465;47.934;33.430;2023-02-08T09:48:30;57464.93;;;-140.43;45.59
30714;BME280;17465;47.934;33.430;2023-02-08T09:54:11;57468.11;;;-140.43;47.09
30714;BME280;17465;47.934;33.430;2023-02-08T09:56:50;57440.57;;;-140.43;47.21
30714;BME280;17465;47.934;33.430;2023-02-08T10:05:28;57467.05;;;-140.43;47.98
30714;BME280;17465;47.934;33.430;2023-02-08T10:08:00;57472.35;;;-140.43;45.77
30714;BME280;17465;47.934;33.430;2023-02-08T10:19:18;57435.28;;;-140.43;43.20
30714;BME280;17465;47.934;33.430;2023-02-08T10:22:08;57436.34;;;-140.43;47.34
30714;BME280;17465;47.934;33.430;2023-02-08T10:24:43;57434.22;;;-140.43;47.24
30714;BME280;17465;47.934;33.430;2023-02-08T10:27:33;57427.87;;;-140.43;47.24
30714;BME280;17465;47.934;33.430;2023-02-08T10:33:01;57456.46;;;-140.43;51.26
30714;BME280;17465;47.934;33.430;2023-02-08T10:35:38;57440.57;;;-140.43;52.86
30714;BME280;17465;47.934;33.430;2023-02-08T10:41:00;57447.99;;;-140.43;52.25
30714;BME280;17465;47.934;33.430;2023-02-08T10:43:47;57471.29;;;-140.43;53.60
30714;BME280;17465;47.934;33.430;2023-02-08T10:49:32;57438.46;;;-140.43;50.24
30714;BME280;17465;47.934;33.430;2023-02-08T10:52:00;57455.40;;;-140.43;51.98
30714;BME280;17465;47.934;33.430;2023-02-08T10:54:33;57455.40;;;-140.43;51.98
30714;BME280;17465;47.934;33.430;2023-02-08T10:57:21;57451.16;;;-140.43;53.55
30714;BME280;17465;47.934;33.430;2023-02-08T10:59:57;57451.16;;;-140.43;53.55
30714;BME280;17465;47.934;33.430;2023-02-08T11:02:32;57439.52;;;-140.43;51.24
30714;BME280;17465;47.934;33.430;2023-02-08T11:07:39;57459.64;;;-140.43;49.81
30714;BME280;17465;47.934;33.430;2023-02-08T11:10:22;57459.64;;;-140.43;49.81
30714;BME280;17465;47.934;33.430;2023-02-08T11:15:50;57433.16;;;-140.43;46.22
30714;BME280;17465;47.934;33.430;2023-02-08T11:18:29;57433.16;;;-140.43;46.22
30714;BME280;17465;47.934;33.430;2023-02-08T11:21:20;57426.80;;;-140.43;46.67
30714;BME280;17465;47.934;33.430;2023-02-08T11:23:39;57451.16;;;-140.43;45.99
30714;BME280;17465;47.934;33.430;2023-02-08T11:29:11;57428.92;;;-140.43;43.89
30714;BME280;17465;47.934;33.430;2023-02-08T11:31:54;57442.69;;;-140.43;43.44
30714;BME280;17465;47.934;33.430;2023-02-08T11:34:11;57441.63;;;-140.43;46.69
30714;BME280;17465;47.934;33.430;2023-02-08T11:36:44;57402.45;;;-140.43;47.76
30714;BME280;17465;47.934;33.430;2023-02-08T11:42:25;57447.99;;;-140.43;46.57
30714;BME280;17465;47.934;33.430;2023-02-08T11:44:57;57458.58;;;-140.43;50.93
30714;BME280;17465;47.934;33.430;2023-02-08T11:47:37;57452.23;;;-140.43;47.69
30714;BME280;17465;47.934;33.430;2023-02-08T11:50:10;57438.46;;;-140.43;47.00
30714;BME280;17465;47.934;33.430;2023-02-08T11:52:48;57454.34;;;-140.43;46.57
30714;BME280;17465;47.934;33.430;2023-02-08T11:55:24;57445.87;;;-140.43;48.32
30714;BME280;17465;47.934;33.430;2023-02-08T12:00:56;57437.39;;;-140.43;47.44
30714;BME280;17465;47.934;33.430;2023-02-08T12:03:36;57437.39;;;-140.43;47.44
30714;BME280;17465;47.934;33.430;2023-02-08T12:18:37;57419.39;;;-140.43;45.70
30714;BME280;17465;47.934;33.430;2023-02-08T12:21:21;57441.63;;;-140.43;45.63
30714;BME280;17465;47.934;33.430;2023-02-08T12:24:13;57447.99;;;-140.43;44.69
30714;BME280;17465;47.934;33.430;2023-02-08T12:41:10;57453.28;;;-140.43;51.68
30714;BME280;17465;47.934;33.430;2023-02-08T12:44:03;57470.23;;;-140.43;51.39
30714;BME280;17465;47.934;33.430;2023-02-08T12:49:33;57451.16;;;-140.43;52.76
30714;BME280;17465;47.934;33.430;2023-02-08T12:55:16;57473.41;;;-140.43;55.00
30714;BME280;17465;47.934;33.430;2023-02-08T12:57:49;57473.41;;;-140.43;55.00
30714;BME280;17465;47.934;33.430;2023-02-08T13:00:35;57481.88;;;-140.43;57.33
30714;BME280;17465;47.934;33.430;2023-02-08T13:03:19;57475.52;;;-140.43;56.15
30714;BME280;17465;47.934;33.430;2023-02-08T13:05:47;57475.52;;;-140.43;56.15
30714;BME280;17465;47.934;33.430;2023-02-08T13:08:57;57478.70;;;-140.43;58.20
30714;BME280;17465;47.934;33.430;2023-02-08T13:11:45;57502.00;;;-140.43;56.94
30714;BME280;17465;47.934;33.430;2023-02-08T13:14:42;57471.29;;;-140.43;57.19
30714;BME280;17465;47.934;33.430;2023-02-08T13:17:17;57471.29;;;-140.43;57.19
30714;BME280;17465;47.934;33.430;2023-02-08T13:20:04;57487.18;;;-140.43;57.41
30714;BME280;17465;47.934;33.430;2023-02-08T13:22:38;57499.88;;;-140.43;60.28
30714;BME280;17465;47.934;33.430;2023-02-08T13:25:28;57492.47;;;-140.43;60.75
30714;BME280;17465;47.934;33.430;2023-02-08T13:28:26;57492.47;;;-140.43;60.75
30714;BME280;17465;47.934;33.430;2023-02-08T13:31:06;57495.65;;;-140.43;58.82
30714;BME280;17465;47.934;33.430;2023-02-08T13:33:35;57502.00;;;-140.43;58.53
30714;BME280;17465;47.934;33.430;2023-02-08T13:36:28;57502.00;;;-140.43;58.53
30714;BME280;17465;47.934;33.430;2023-02-08T13:38:45;57506.24;;;-140.43;59.01
30714;BME280;17465;47.934;33.430;2023-02-08T13:41:18;57493.53;;;-140.43;59.25
30714;BME280;17465;47.934;33.430;2023-02-08T13:44:01;57493.53;;;-140.43;59.25
30714;BME280;17465;47.934;33.430;2023-02-08T13:46:34;57478.70;;;-140.43;59.11
30714;BME280;17465;47.934;33.430;2023-02-08T13:49:09;57478.70;;;-140.43;59.11
30714;BME280;17465;47.934;33.430;2023-02-08T13:51:55;57455.40;;;-140.43;59.75
30714;BME280;17465;47.934;33.430;2023-02-08T13:54:29;57508.36;;;-140.43;57.78
30714;BME280;17465;47.934;33.430;2023-02-08T13:56:59;57489.29;;;-140.43;58.64
30714;BME280;17465;47.934;33.430;2023-02-08T13:59:36;57489.29;;;-140.43;58.64
30714;BME280;17465;47.934;33.430;2023-02-08T14:02:19;57482.94;;;-140.43;59.79
30714;BME280;17465;47.934;33.430;2023-02-08T14:04:56;57482.94;;;-140.43;59.79
30714;BME280;17465;47.934;33.430;2023-02-08T14:07:44;57505.18;;;-140.43;57.84
30714;BME280;17465;47.934;33.430;2023-02-08T14:10:20;57489.29;;;-140.43;58.28
30714;BME280;17465;47.934;33.430;2023-02-08T14:15:34;57479.76;;;-140.43;60.24
30714;BME280;17465;47.934;33.430;2023-02-08T14:18:26;57526.36;;;-140.43;62.61
30714;BME280;17465;47.934;33.430;2023-02-08T14:21:01;57491.41;;;-140.43;61.96
30714;BME280;17465;47.934;33.430;2023-02-08T14:23:37;57491.41;;;-140.43;61.96
30714;BME280;17465;47.934;33.430;2023-02-08T14:26:17;57516.83;;;-140.43;64.94
30714;BME280;17465;47.934;33.430;2023-02-08T14:28:46;57517.89;;;-140.43;65.43
30714;BME280;17465;47.934;33.430;2023-02-08T14:31:19;57499.88;;;-140.43;66.88
30714;BME280;17465;47.934;33.430;2023-02-08T14:33:56;57490.35;;;-140.43;67.29
30714;BME280;17465;47.934;33.430;2023-02-08T14:36:35;57490.35;;;-140.43;67.29
30714;BME280;17465;47.934;33.430;2023-02-08T14:39:26;57507.30;;;-140.43;67.90
30714;BME280;17465;47.934;33.430;2023-02-08T14:44:58;57520.01;;;-140.43;68.13
30714;BME280;17465;47.934;33.430;2023-02-08T14:50:34;57486.12;;;-140.43;68.69
30714;BME280;17465;47.934;33.430;2023-02-08T14:53:05;57486.12;;;-140.43;68.69
30714;BME280;17465;47.934;33.430;2023-02-08T14:58:44;57493.53;;;-140.43;68.78
30714;BME280;17465;47.934;33.430;2023-02-08T15:03:59;57494.59;;;-140.43;70.34
30714;BME280;17465;47.934;33.430;2023-02-08T15:06:45;57473.41;;;-140.43;69.94
30714;BME280;17465;47.934;33.430;2023-02-08T15:09:24;57472.35;;;-140.43;70.58
30714;BME280;17465;47.934;33.430;2023-02-08T15:12:10;57528.48;;;-140.43;69.52
30714;BME280;17465;47.934;33.430;2023-02-08T15:14:41;57512.59;;;-140.43;69.34
30714;BME280;17465;47.934;33.430;2023-02-08T15:17:35;57502.00;;;-140.43;69.98
30714;BME280;17465;47.934;33.430;2023-02-08T15:20:13;57536.95;;;-140.43;70.38